CheckWX is a tool to help pilots better visualize weather data.  It is not intended as a substitute for an official pre-flight weather briefing.

08:45:00 UTC

KASE METAR
Aspen-Pitkin Co / Sardy Field Airport
Aspen, Colorado, USA
Current

52 mins ago

KASE 180753Z AUTO 14015G22KT 10SM -RA BKN050 OVC070 08/02 A2985 RMK AO2 PK WND 14030/0713 RAB16 SLP997 P0000 T00830017
Observed
Oct-18 @ 07:53 UTC
Wind
  • 140° at 15 KTS
  • Gusting to 22 KTS
Visibility
10 SM
Flight Rules
VFR
Conditions
Light Rain
Cloud Levels
  • Broken at 5,000' AGL
  • Overcast at 7,000' AGL
Temperature
C / 46°F
Dewpoint
C / 36°F
Humidity
66%
Altimeter
29.85" Hg
Pressure
1010.82 hPa
Current Rain
0.01"
Previous

2 hours ago

KASE 180653Z AUTO 18004KT 10SM FEW033 BKN080 07/02 A2983 RMK AO2 RAE12B36E45 SLP995 P0000 T00720017 402111017
Observed
Oct-18 @ 06:53 UTC
Wind
  • 180° at 4 KTS
Visibility
10 SM
Flight Rules
VFR
Cloud Levels
  • Few at 3,300' AGL
  • Broken at 8,000' AGL
Temperature
C / 45°F
Dewpoint
C / 36°F
Humidity
71%
Altimeter
29.83" Hg
Pressure
1010.12 hPa
Current Rain
0.01"
Previous

3 hours ago

KASE 180553Z AUTO 21018G34KT 10SM -RA FEW036 FEW065 BKN080 11/M02 A2987 RMK AO2 PK WND 17034/0550 RAB52 PRESRR SLP010 P0000 60000 T01061017 10161 20044 53001
Observed
Oct-18 @ 05:53 UTC
Wind
  • 210° at 18 KTS
  • Gusting to 34 KTS
Visibility
10 SM
Flight Rules
VFR
Conditions
Light Rain
Cloud Levels
  • Few at 3,600' AGL
  • Few at 6,500' AGL
  • Broken at 8,000' AGL
Temperature
11°C / 52°F
Dewpoint
-2°C / 28°F
Humidity
41%
Altimeter
29.87" Hg
Pressure
1011.52 hPa
Current Rain
0.01"